Main page
METAR-TAF:

METAR-TAF

Airports :

Hamid Karzai International Airport

Kabul, Afghanistan

latitude: 34-38N, longitude: 069-12E, elevation: 1789 m

Current weather observation

The report was made 24 minutes ago, at 02:50 UTC
Wind 6 kt from the Northwest
Temperature 2°C
Humidity 51%
Pressure 1022 hPa
Visibility 10 km or more
no clouds below 1500 m and no cumulonimbus

METAR: OAKB 010250Z 32006KT CAVOK 02/M07 Q1022 RMK A3019 BLU BLU

Time: 07:44 (03:14 UTC)

Forecast

The report was made 4 hours and 9 minutes ago, at 23:05 UTC
Forecast valid from 01 at 00 UTC to 01 at 24 UTC
Wind 2 kt from variable directions
Visibility: 4000 m
smoke
Becoming
from 01 at 04 UTC to 01 at 06 UTC
Visibility: 8000 m
Becoming
from 01 at 08 UTC to 01 at 10 UTC
Visibility 10 km or more
no clouds below 1500 m and no cumulonimbus
Becoming
from 01 at 16 UTC to 01 at 18 UTC
Visibility: 4000 m
smoke

TAF: OAKB 282305Z 0100/0124 VRB02KT 4000 FU NSC BECMG 0104/0106 8000 NSW BECMG 0108/0110 CAVOK BECMG 0116/0118 4000 FU

Weather observations and forecasts of more than 4000 airports (METAR and TAF reports).

The available stations are represented by yellow and red dots on the map.

Hover mouse over dot to see the name of the station.

Then click to see weather observations and forecasts.

To change the map : click on the green buttons with a black cross to zoom in, on the green button with a dash to zoom out, or on the green arrows for adjacent maps.


METAR-TAF: